Аэропорт: Хомутово. Южно-Сахалинск

ICAO: UHSS

METAR:
2019/01/21 23:00
UHSS 212300Z 03001MPS 9999 FEW033CB M15/M17 Q1003 R01/810365 NOSIG RMK MT OBSC QFE751/1002
METAR:
2019/01/21 21:21
TAF UHSS 212000Z 2121/2303 VRB01MPS 9999 BKN030CB 
      TEMPO 2121/2202 -SHSN 
      BECMG 2200/2201 34003MPS